Time;durP1;ratioP1;P1;durP2;ratioP2;P2;SDS_P1;SDS_P2;PMS_P1;PMS_P2;Temp;Humidity;BMP_temperature;BMP_pressure;BME280_temperature;BME280_humidity;BME280_pressure;Samples;Min_cycle;Max_cycle;Signal;HPM_P1;HPM_P2
2021/03/24 05:55:53;;;;;;;;;;;;;;;-1.12;71.47;98057.44;1576394;87;20640;-68
2021/03/24 05:58:37;;;;;;;;;;;;;;;-1.15;70.92;98053.88;1621048;85;20462;-64
2021/03/24 06:01:08;;;;;;;;;;;;;;;-1.13;70.90;98059.69;1624674;85;20594;-65
2021/03/24 06:04:12;;;;;;;;;;;;;;;-1.14;70.33;98057.27;1632661;87;20723;-61
2021/03/24 06:06:48;;;;;;;;;;;;;;;-1.15;70.34;98055.69;1628114;86;21376;-68
2021/03/24 06:09:53;;;;;;;;;;;;;;;-1.14;69.53;98061.13;1617851;85;20299;-69
2021/03/24 06:12:34;;;;;;;;;;;;;;;-1.13;69.02;98059.69;1632102;87;20496;-65
2021/03/24 06:15:40;;;;;;;;;;;;;;;-1.12;68.51;98056.15;1631570;87;20643;-67
2021/03/24 06:18:39;;;;;;;;;;;;;;;-1.14;68.43;98057.27;1640938;87;20497;-71
2021/03/24 06:21:32;;;;;;;;;;;;;;;-1.12;68.82;98059.20;1621207;85;21900;-68
2021/03/24 06:24:13;;;;;;;;;;;;;;;-1.06;68.09;98065.80;1617621;87;20493;-71
2021/03/24 06:26:59;;;;;;;;;;;;;;;-1.00;67.56;98068.20;1625803;85;20297;-70
2021/03/24 06:29:31;;;;;;;;;;;;;;;-0.94;67.27;98072.73;1614965;85;20572;-70
2021/03/24 06:32:23;;;;;;;;;;;;;;;-0.87;67.60;98073.20;1629572;85;20639;-67
2021/03/24 06:35:01;;;;;;;;;;;;;;;-0.83;66.43;98082.22;1591171;87;20888;-67
2021/03/24 06:37:36;;;;;;;;;;;;;;;-0.80;66.28;98077.22;1624629;85;20409;-72
2021/03/24 06:40:26;;;;;;;;;;;;;;;-0.76;66.48;98081.07;1613737;87;20437;-66
2021/03/24 06:43:21;;;;;;;;;;;;;;;-0.72;66.08;98085.44;1591999;85;20552;-67
2021/03/24 06:46:05;;;;;;;;;;;;;;;-0.64;64.96;98086.67;1627146;85;21374;-66
2021/03/24 06:48:49;;;;;;;;;;;;;;;-0.58;65.28;98081.69;1634679;86;22330;-66
2021/03/24 06:51:45;;;;;;;;;;;;;;;-0.52;65.09;98081.50;1630248;85;20491;-67
2021/03/24 06:54:49;;;;;;;;;;;;;;;-0.47;64.64;98080.50;1639835;85;20523;-67
2021/03/24 06:57:40;;;;;;;;;;;;;;;-0.43;63.87;98079.19;1644840;83;20495;-67
2021/03/24 07:00:18;;;;;;;;;;;;;;;-0.39;64.13;98089.52;1658427;83;20515;-73
2021/03/24 07:03:09;;;;;;;;;;;;;;;-0.33;64.19;98087.55;1646366;83;21874;-68
2021/03/24 07:06:04;;;;;;;;;;;;;;;-0.24;63.51;98089.14;1647991;84;20556;-67
2021/03/24 07:08:57;;;;;;;;;;;;;;;-0.16;63.60;98091.69;1653413;84;20396;-67
2021/03/24 07:11:47;;;;;;;;;;;;;;;-0.10;63.49;98099.25;1599614;87;20547;-68
2021/03/24 07:14:54;;;;;;;;;;;;;;;-0.04;63.64;98112.29;1654389;83;20559;-66
2021/03/24 07:17:52;;;;;;;;;;;;;;;0.04;63.46;98104.19;1626443;85;22057;-63
2021/03/24 07:20:55;;;;;;;;;;;;;;;0.09;63.00;98107.05;1605351;87;20299;-61
2021/03/24 07:23:45;;;;;;;;;;;;;;;0.12;62.45;98108.02;1607306;86;20499;-64
2021/03/24 07:26:41;;;;;;;;;;;;;;;0.18;62.92;98112.50;1622997;86;20535;-77
2021/03/24 07:29:18;;;;;;;;;;;;;;;0.25;63.17;98111.66;1632223;85;20612;-69
2021/03/24 07:32:10;;;;;;;;;;;;;;;0.36;62.51;98113.06;1630391;85;21966;-65
2021/03/24 07:35:18;;;;;;;;;;;;;;;0.45;61.83;98116.38;1620902;86;20506;-66
2021/03/24 07:37:55;;;;;;;;;;;;;;;0.49;61.74;98108.61;1617965;86;20332;-68
2021/03/24 07:40:38;;;;;;;;;;;;;;;0.57;63.21;98119.71;1615353;86;20506;-72
2021/03/24 07:43:19;;;;;;;;;;;;;;;0.65;62.23;98118.33;1567041;87;20691;-69
2021/03/24 07:46:23;;;;;;;;;;;;;;;0.72;62.28;98114.08;1617863;86;22309;-65
2021/03/24 07:49:15;;;;;;;;;;;;;;;0.78;62.51;98121.17;1612208;86;38267;-68
2021/03/24 07:52:01;;;;;;;;;;;;;;;0.86;60.25;98125.97;1566742;88;20478;-68
2021/03/24 07:54:44;;;;;;;;;;;;;;;0.94;59.00;98123.28;1611632;86;20310;-66
2021/03/24 07:57:33;;;;;;;;;;;;;;;1.01;59.92;98124.23;1625495;86;20575;-69
2021/03/24 08:00:22;;;;;;;;;;;;;;;1.06;60.36;98129.67;1629582;86;22116;-70
2021/03/24 08:02:56;;;;;;;;;;;;;;;1.12;59.38;98136.25;1626041;86;20579;-71
2021/03/24 08:05:30;;;;;;;;;;;;;;;1.16;59.83;98128.44;1629494;86;20290;-70
2021/03/24 08:08:19;;;;;;;;;;;;;;;1.24;60.56;98127.55;1626755;86;20508;-67
2021/03/24 08:11:13;;;;;;;;;;;;;;;1.30;56.24;98138.50;1626236;86;20799;-68
2021/03/24 08:13:55;;;;;;;;;;;;;;;1.35;57.04;98141.38;1630590;86;22394;-70
2021/03/24 08:16:43;;;;;;;;;;;;;;;1.38;57.29;98135.83;1629562;86;20626;-65
2021/03/24 08:19:25;;;;;;;;;;;;;;;1.43;57.11;98136.62;1630507;86;20513;-69
2021/03/24 08:22:19;;;;;;;;;;;;;;;1.49;56.90;98132.83;1629464;86;20243;-70
2021/03/24 08:24:55;;;;;;;;;;;;;;;1.51;58.11;98134.72;1632173;84;20621;-67
2021/03/24 08:27:34;;;;;;;;;;;;;;;1.53;57.46;98128.88;1630185;84;21149;-68
2021/03/24 08:30:23;;;;;;;;;;;;;;;1.51;55.07;98133.43;1627508;86;20567;-71
2021/03/24 08:33:11;;;;;;;;;;;;;;;1.54;56.91;98135.67;1625505;86;20637;-67
2021/03/24 08:35:46;;;;;;;;;;;;;;;1.60;56.35;98132.05;1627089;86;20484;-65
2021/03/24 08:38:37;;;;;;;;;;;;;;;1.68;57.64;98137.15;1626995;86;20200;-69
2021/03/24 08:41:44;;;;;;;;;;;;;;;1.77;57.95;98142.56;1629388;86;22141;-68
2021/03/24 08:44:20;;;;;;;;;;;;;;;1.84;57.05;98136.48;1573502;89;20622;-77
2021/03/24 08:47:00;;;;;;;;;;;;;;;1.94;58.06;98134.44;1572741;89;20520;-65
2021/03/24 08:49:33;;;;;;;;;;;;;;;2.03;54.80;98139.00;1606098;86;20660;-67
2021/03/24 08:52:22;;;;;;;;;;;;;;;2.04;51.93;98128.95;1601368;86;20553;-69
2021/03/24 08:54:56;;;;;;;;;;;;;;;2.04;52.39;98129.44;1628828;86;22090;-67
2021/03/24 08:57:41;;;;;;;;;;;;;;;2.03;52.12;98126.05;1622588;86;20236;-70
2021/03/24 09:00:25;;;;;;;;;;;;;;;2.08;53.14;98124.22;1629750;84;20557;-66
2021/03/24 09:03:20;;;;;;;;;;;;;;;2.14;53.96;98125.59;1627115;86;20460;-68
2021/03/24 09:06:00;;;;;;;;;;;;;;;2.18;52.04;98122.94;1630385;86;20797;-65
2021/03/24 09:08:37;;;;;;;;;;;;;;;2.19;51.96;98117.26;1627343;86;21973;-66
2021/03/24 09:11:30;;;;;;;;;;;;;;;2.19;50.63;98124.55;1622801;86;20586;-66
2021/03/24 09:14:02;;;;;;;;;;;;;;;2.21;53.80;98123.88;1626890;84;20315;-68
2021/03/24 09:17:07;;;;;;;;;;;;;;;2.31;54.42;98121.78;1623480;85;20252;-66
2021/03/24 09:19:42;;;;;;;;;;;;;;;2.37;52.72;98119.47;1629103;86;20611;-70
2021/03/24 09:22:50;;;;;;;;;;;;;;;2.42;52.94;98117.11;1598354;86;20727;-65
2021/03/24 09:25:25;;;;;;;;;;;;;;;2.47;54.05;98119.46;1568432;88;20579;-65
2021/03/24 09:28:01;;;;;;;;;;;;;;;2.54;55.08;98113.03;1527095;90;20563;-62
2021/03/24 09:30:51;;;;;;;;;;;;;;;2.58;52.38;98112.99;1547438;90;20472;-66
2021/03/24 09:33:40;;;;;;;;;;;;;;;2.59;53.13;98111.52;1563738;88;21184;-64
2021/03/24 09:36:38;;;;;;;;;;;;;;;2.57;52.86;98127.76;1527964;90;21990;-64
2021/03/24 09:39:16;;;;;;;;;;;;;;;2.58;53.91;98114.29;1548129;90;20599;-62
2021/03/24 09:41:49;;;;;;;;;;;;;;;2.66;51.91;98114.17;1550295;90;20443;-69
2021/03/24 09:44:31;;;;;;;;;;;;;;;2.74;52.88;98111.43;1532427;90;20493;-65
2021/03/24 09:47:01;;;;;;;;;;;;;;;2.80;51.47;98124.98;1557522;89;21062;-65
2021/03/24 09:49:40;;;;;;;;;;;;;;;2.70;49.72;98110.20;1550518;90;22983;-63
2021/03/24 09:52:33;;;;;;;;;;;;;;;2.54;50.29;98120.82;1550401;89;20708;-64
2021/03/24 09:55:15;;;;;;;;;;;;;;;2.41;51.01;98123.28;1552824;89;20590;-61
2021/03/24 09:58:11;;;;;;;;;;;;;;;2.35;51.43;98122.23;1553074;90;20493;-64
2021/03/24 10:01:19;;;;;;;;;;;;;;;2.43;51.90;98123.91;1560682;89;20635;-61
2021/03/24 10:04:15;;;;;;;;;;;;;;;2.52;49.03;98118.92;1569191;88;21911;-60
2021/03/24 10:07:16;;;;;;;;;;;;;;;2.56;49.39;98111.07;1572674;89;20564;-64
2021/03/24 10:09:58;;;;;;;;;;;;;;;2.62;50.08;98111.63;1567916;88;20514;-60
2021/03/24 10:12:31;;;;;;;;;;;;;;;2.68;49.83;98105.20;1541246;89;20503;-62
2021/03/24 10:15:06;;;;;;;;;;;;;;;2.77;52.13;98108.47;1566556;89;20574;-61
2021/03/24 10:17:43;;;;;;;;;;;;;;;2.91;50.28;98112.79;1569898;88;22099;-61
2021/03/24 10:20:25;;;;;;;;;;;;;;;2.98;50.67;98119.33;1570470;88;20522;-62
2021/03/24 10:23:01;;;;;;;;;;;;;;;3.03;49.98;98113.88;1568346;89;20504;-61
2021/03/24 10:25:38;;;;;;;;;;;;;;;3.12;49.92;98110.16;1540638;91;20564;-64
2021/03/24 10:28:11;;;;;;;;;;;;;;;3.23;51.08;98119.25;1541530;91;21198;-66
2021/03/24 10:30:45;;;;;;;;;;;;;;;3.32;49.69;98118.59;1542534;90;20905;-66
2021/03/24 10:33:26;;;;;;;;;;;;;;;3.31;47.68;98113.11;1541364;91;20601;-72
2021/03/24 10:36:04;;;;;;;;;;;;;;;3.26;49.70;98119.34;1527208;91;20717;-65
2021/03/24 10:38:48;;;;;;;;;;;;;;;3.32;49.38;98112.89;1541144;91;20978;-70
2021/03/24 10:41:27;;;;;;;;;;;;;;;3.43;48.39;98108.48;1540332;91;20613;-70
2021/03/24 10:44:06;;;;;;;;;;;;;;;3.48;48.06;98107.41;1539734;91;20662;-66
2021/03/24 10:46:41;;;;;;;;;;;;;;;3.54;49.49;98105.84;1539219;91;20551;-73
2021/03/24 10:49:17;;;;;;;;;;;;;;;3.66;49.71;98110.83;1540108;91;20626;-70
2021/03/24 10:51:57;;;;;;;;;;;;;;;3.76;49.99;98113.06;1539846;91;20502;-67
2021/03/24 10:54:28;;;;;;;;;;;;;;;3.84;49.39;98111.11;1538521;91;20663;-68
2021/03/24 10:57:28;;;;;;;;;;;;;;;3.88;48.60;98112.84;1543103;91;20819;-64
2021/03/24 11:00:33;;;;;;;;;;;;;;;3.85;48.06;98113.21;1598518;87;20532;-68
2021/03/24 11:03:19;;;;;;;;;;;;;;;3.92;49.01;98112.74;1609032;86;20620;-69
2021/03/24 11:05:58;;;;;;;;;;;;;;;3.97;48.69;98099.16;1607185;87;20499;-71
2021/03/24 11:08:41;;;;;;;;;;;;;;;4.01;48.05;98105.09;1604286;86;20708;-72
2021/03/24 11:11:15;;;;;;;;;;;;;;;4.03;48.49;98098.41;1603774;87;21211;-69
2021/03/24 11:13:58;;;;;;;;;;;;;;;3.99;48.58;98097.97;1602191;87;20445;-66
2021/03/24 11:16:39;;;;;;;;;;;;;;;4.04;46.95;98094.28;1605364;87;20550;-65
2021/03/24 11:19:30;;;;;;;;;;;;;;;4.04;50.06;98097.38;1604054;87;20582;-67
2021/03/24 11:22:12;;;;;;;;;;;;;;;4.05;49.23;98100.29;1603326;87;20737;-67
2021/03/24 11:25:04;;;;;;;;;;;;;;;4.02;48.53;98091.59;1606307;86;22128;-65
2021/03/24 11:27:41;;;;;;;;;;;;;;;4.02;48.41;98097.59;1602044;87;20421;-65
2021/03/24 11:30:35;;;;;;;;;;;;;;;4.04;49.39;98090.88;1578479;88;20487;-69
2021/03/24 11:33:24;;;;;;;;;;;;;;;4.03;48.91;98088.80;1574810;88;20574;-71
2021/03/24 11:36:01;;;;;;;;;;;;;;;4.11;47.47;98082.59;1581591;87;20617;-72
2021/03/24 11:38:50;;;;;;;;;;;;;;;4.27;49.13;98080.45;1574894;88;22014;-68
2021/03/24 11:41:26;;;;;;;;;;;;;;;4.42;49.59;98086.80;1601254;88;20623;-63
2021/03/24 11:44:12;;;;;;;;;;;;;;;4.42;47.77;98081.59;1599609;87;20608;-67
2021/03/24 11:46:47;;;;;;;;;;;;;;;4.44;48.83;98073.59;1600582;87;20592;-65
2021/03/24 11:49:25;;;;;;;;;;;;;;;4.54;49.42;98084.44;1607615;86;20768;-64
2021/03/24 11:52:09;;;;;;;;;;;;;;;4.62;48.76;98088.13;1605252;87;21816;-68
2021/03/24 11:54:42;;;;;;;;;;;;;;;4.67;50.88;98084.45;1571302;88;20554;-69
2021/03/24 11:57:17;;;;;;;;;;;;;;;4.69;45.85;98087.63;1576047;88;20203;-70
2021/03/24 12:00:06;;;;;;;;;;;;;;;4.67;44.54;98076.14;1577657;88;20516;-70
2021/03/24 12:02:49;;;;;;;;;;;;;;;4.68;45.88;98086.83;1579890;88;20783;-71
2021/03/24 12:05:41;;;;;;;;;;;;;;;4.67;45.57;98083.15;1599293;86;20736;-68
2021/03/24 12:08:20;;;;;;;;;;;;;;;4.65;45.61;98080.73;1600292;87;20430;-65
2021/03/24 12:11:16;;;;;;;;;;;;;;;4.65;44.57;98083.84;1580338;88;20518;-64
2021/03/24 12:13:46;;;;;;;;;;;;;;;4.59;44.60;98080.23;1585774;88;20593;-66
2021/03/24 12:16:17;;;;;;;;;;;;;;;4.46;44.90;98087.22;1604466;87;20978;-69
2021/03/24 12:18:50;;;;;;;;;;;;;;;4.45;45.86;98089.52;1604017;86;21903;-70
2021/03/24 12:21:24;;;;;;;;;;;;;;;4.49;46.63;98087.61;1600596;87;21098;-66
2021/03/24 12:23:54;;;;;;;;;;;;;;;4.55;43.98;98092.52;1601350;87;20538;-67
2021/03/24 12:26:36;;;;;;;;;;;;;;;4.65;45.70;98080.73;1602958;86;20820;-62
2021/03/24 12:29:13;;;;;;;;;;;;;;;4.71;43.95;98078.64;1601861;86;20648;-64
2021/03/24 12:31:50;;;;;;;;;;;;;;;4.69;46.18;98095.44;1578150;88;21848;-64
2021/03/24 12:34:19;;;;;;;;;;;;;;;4.67;44.93;98087.86;1585216;88;20568;-66
2021/03/24 12:36:52;;;;;;;;;;;;;;;4.70;46.01;98093.95;1585892;87;20621;-69
2021/03/24 12:39:38;;;;;;;;;;;;;;;4.71;45.05;98081.73;1587133;87;20441;-70
2021/03/24 12:42:22;;;;;;;;;;;;;;;4.65;45.00;98089.05;1589158;88;20511;-68
2021/03/24 12:44:50;;;;;;;;;;;;;;;4.58;45.54;98083.83;1571620;88;21768;-69
2021/03/24 12:47:40;;;;;;;;;;;;;;;4.54;44.73;98090.95;1598915;86;20587;-69
2021/03/24 12:50:18;;;;;;;;;;;;;;;4.59;45.24;98083.34;1601361;87;20163;-65
2021/03/24 12:52:56;;;;;;;;;;;;;;;4.69;47.41;98091.54;1598896;86;20697;-65
2021/03/24 12:55:25;;;;;;;;;;;;;;;4.76;45.97;98083.23;1604863;87;20140;-66
2021/03/24 12:58:26;;;;;;;;;;;;;;;4.83;46.04;98080.63;1601840;86;20487;-66
2021/03/24 13:01:30;;;;;;;;;;;;;;;4.82;44.68;98077.75;1597423;87;20170;-66
2021/03/24 13:04:17;;;;;;;;;;;;;;;4.82;45.72;98077.75;1579800;88;20601;-66
2021/03/24 13:07:04;;;;;;;;;;;;;;;4.92;45.76;98080.74;1585725;88;20615;-68
2021/03/24 13:09:54;;;;;;;;;;;;;;;4.94;45.19;98078.75;1557084;89;20201;-72
2021/03/24 13:12:43;;;;;;;;;;;;;;;4.95;45.77;98079.86;1554506;89;21776;-70
2021/03/24 13:15:18;;;;;;;;;;;;;;;4.97;44.20;98075.22;1571468;89;20514;-67
2021/03/24 13:18:02;;;;;;;;;;;;;;;4.94;44.66;98078.25;1574091;89;20592;-69
2021/03/24 13:21:05;;;;;;;;;;;;;;;4.81;44.00;98078.25;1581204;88;20688;-69
2021/03/24 13:23:56;;;;;;;;;;;;;;;4.65;43.89;98075.53;1578507;87;20489;-67
2021/03/24 13:26:36;;;;;;;;;;;;;;;4.60;44.90;98080.54;1560454;88;20867;-69
2021/03/24 13:29:16;;;;;;;;;;;;;;;4.55;42.52;98076.91;1557109;89;20503;-70
2021/03/24 13:31:55;;;;;;;;;;;;;;;4.46;42.06;98077.61;1554418;88;20540;-72
2021/03/24 13:34:48;;;;;;;;;;;;;;;4.44;42.82;98077.00;1573983;89;20830;-68
2021/03/24 13:37:20;;;;;;;;;;;;;;;4.51;43.55;98077.81;1577658;88;20619;-72
2021/03/24 13:39:56;;;;;;;;;;;;;;;4.49;42.33;98075.09;1582784;87;21902;-68
2021/03/24 13:42:30;;;;;;;;;;;;;;;4.38;42.46;98084.30;1577310;88;20612;-67
2021/03/24 13:45:08;;;;;;;;;;;;;;;4.26;43.31;98085.35;1576406;88;20231;-74
2021/03/24 13:47:42;;;;;;;;;;;;;;;4.23;42.83;98076.66;1594701;87;20623;-70
2021/03/24 13:50:26;;;;;;;;;;;;;;;4.25;41.39;98083.74;1596354;87;20433;-69
2021/03/24 13:52:59;;;;;;;;;;;;;;;4.31;40.08;98076.98;1604269;86;20743;-69
2021/03/24 13:55:47;;;;;;;;;;;;;;;4.43;41.93;98078.49;1606115;86;20511;-78
2021/03/24 13:58:28;;;;;;;;;;;;;;;4.53;40.84;98086.73;1600630;87;20411;-70
2021/03/24 14:01:29;;;;;;;;;;;;;;;4.62;40.49;98079.82;1617149;86;20717;-70
2021/03/24 14:04:03;;;;;;;;;;;;;;;4.68;41.20;98071.20;1592006;88;20522;-72
2021/03/24 14:06:59;;;;;;;;;;;;;;;4.74;41.81;98064.42;1565763;89;21273;-71
2021/03/24 14:09:38;;;;;;;;;;;;;;;4.82;41.95;98074.66;1572100;89;20604;-66
2021/03/24 14:12:37;;;;;;;;;;;;;;;4.94;41.44;98069.13;1573235;88;20426;-68
2021/03/24 14:15:11;;;;;;;;;;;;;;;5.04;41.56;98064.30;1589080;89;20589;-66
2021/03/24 14:17:59;;;;;;;;;;;;;;;5.23;42.01;98064.00;1587147;88;20713;-65
2021/03/24 14:20:30;;;;;;;;;;;;;;;5.34;43.16;98056.85;1583566;88;21234;-69
2021/03/24 14:23:07;;;;;;;;;;;;;;;5.45;41.62;98055.44;1575349;89;20588;-75
2021/03/24 14:25:37;;;;;;;;;;;;;;;5.56;42.69;98053.99;1574859;88;20413;-72
2021/03/24 14:28:21;;;;;;;;;;;;;;;5.63;41.97;98064.70;1590624;88;20493;-65
2021/03/24 14:30:58;;;;;;;;;;;;;;;5.50;40.61;98059.53;1603044;87;20843;-67
2021/03/24 14:33:33;;;;;;;;;;;;;;;5.30;41.48;98061.38;1641671;86;22105;-67
2021/03/24 14:36:27;;;;;;;;;;;;;;;5.13;41.98;98059.69;1639041;85;20884;-65
2021/03/24 14:39:11;;;;;;;;;;;;;;;5.01;42.37;98059.52;1635559;86;20320;-67
2021/03/24 14:42:16;;;;;;;;;;;;;;;4.90;42.40;98071.05;1626739;86;20581;-63
2021/03/24 14:45:14;;;;;;;;;;;;;;;4.79;42.49;98068.53;1626273;87;20650;-66
2021/03/24 14:47:52;;;;;;;;;;;;;;;4.88;43.91;98066.53;1606204;86;22374;-64
